createdAt,value
2022-09-13T00:01:35.704Z,20.70
2022-09-13T00:04:02.893Z,20.70
2022-09-13T00:06:29.694Z,20.70
2022-09-13T00:08:56.637Z,20.70
2022-09-13T00:11:26.398Z,20.70
2022-09-13T00:13:54.764Z,20.60
2022-09-13T00:16:24.983Z,20.60
2022-09-13T00:18:52.817Z,20.60
2022-09-13T00:21:21.795Z,20.70
2022-09-13T00:23:51.203Z,20.70
2022-09-13T00:26:27.789Z,20.60
2022-09-13T00:28:57.266Z,20.70
2022-09-13T00:31:27.672Z,20.70
2022-09-13T00:33:55.174Z,20.70
2022-09-13T00:36:21.977Z,20.70
2022-09-13T00:38:48.804Z,20.80
2022-09-13T00:41:17.882Z,20.80
2022-09-13T00:43:56.915Z,20.70
2022-09-13T00:46:26.514Z,20.80
2022-09-13T00:49:21.357Z,20.80
2022-09-13T00:51:56.249Z,20.80
2022-09-13T00:54:26.957Z,20.80
2022-09-13T00:56:58.145Z,20.70
2022-09-13T00:59:35.621Z,20.70
2022-09-13T01:02:04.561Z,20.60
2022-09-13T01:04:35.072Z,20.60
2022-09-13T01:07:06.206Z,20.60
2022-09-13T01:09:36.978Z,20.60
2022-09-13T01:12:10.441Z,20.60
2022-09-13T01:14:37.560Z,20.60
2022-09-13T01:17:04.734Z,20.60
2022-09-13T01:19:31.939Z,20.70
2022-09-13T01:22:23.873Z,20.80
2022-09-13T01:25:28.505Z,20.90
2022-09-13T01:28:16.619Z,21.00
2022-09-13T01:31:12.360Z,20.90
2022-09-13T01:33:58.771Z,20.80
2022-09-13T01:36:42.845Z,20.60
2022-09-13T01:39:22.813Z,20.70
2022-09-13T01:42:22.531Z,20.70
2022-09-13T01:44:57.965Z,20.60
2022-09-13T01:47:38.829Z,20.60
2022-09-13T01:50:23.380Z,20.60
2022-09-13T01:53:01.236Z,20.70
2022-09-13T01:55:50.788Z,20.70
2022-09-13T01:58:22.481Z,20.70
2022-09-13T02:01:30.926Z,20.70
2022-09-13T02:04:13.409Z,20.80
2022-09-13T02:06:50.722Z,20.80
2022-09-13T02:09:22.217Z,20.90
2022-09-13T02:11:58.378Z,20.90
2022-09-13T02:14:36.390Z,20.90
2022-09-13T02:17:13.571Z,20.90
2022-09-13T02:19:55.118Z,21.00
2022-09-13T02:22:29.061Z,21.00
2022-09-13T02:25:00.240Z,21.00
2022-09-13T02:27:33.192Z,21.00
2022-09-13T02:30:07.714Z,21.00
2022-09-13T02:32:44.229Z,20.90
2022-09-13T02:35:32.716Z,20.80
2022-09-13T02:38:10.457Z,20.80
2022-09-13T02:40:46.198Z,20.80
2022-09-13T02:43:20.943Z,20.70
2022-09-13T02:45:57.144Z,20.70
2022-09-13T02:48:41.888Z,20.70
2022-09-13T02:51:30.522Z,20.70
2022-09-13T02:54:18.686Z,20.90
2022-09-13T02:56:59.411Z,20.90
2022-09-13T02:59:26.846Z,21.00
2022-09-13T03:02:12.823Z,20.90
2022-09-13T03:04:40.081Z,20.80
2022-09-13T03:07:12.349Z,20.80
2022-09-13T03:09:54.641Z,20.80
2022-09-13T03:12:47.978Z,20.80
2022-09-13T03:15:32.846Z,20.70
2022-09-13T03:18:37.531Z,20.70
2022-09-13T03:21:27.761Z,20.70
2022-09-13T03:24:15.617Z,20.70
2022-09-13T03:27:03.534Z,20.60
2022-09-13T03:30:11.636Z,20.50
2022-09-13T03:32:53.315Z,20.40
2022-09-13T03:35:27.949Z,20.50
2022-09-13T03:38:16.041Z,20.50
2022-09-13T03:40:49.970Z,20.50
2022-09-13T03:43:25.780Z,20.50
2022-09-13T03:45:56.939Z,20.50
2022-09-13T03:48:24.716Z,20.60
2022-09-13T03:50:51.802Z,20.50
2022-09-13T03:53:23.565Z,20.30
2022-09-13T03:55:50.320Z,20.20
2022-09-13T03:58:19.361Z,20.20
2022-09-13T04:00:46.512Z,20.20
2022-09-13T04:03:14.132Z,20.20
2022-09-13T04:05:41.045Z,20.10
2022-09-13T04:08:08.412Z,20.00
2022-09-13T04:10:36.289Z,19.90
2022-09-13T04:13:03.957Z,19.90
2022-09-13T04:15:31.316Z,19.90
2022-09-13T04:18:00.035Z,19.80
2022-09-13T04:20:27.014Z,19.80
2022-09-13T04:22:55.439Z,19.80
2022-09-13T04:25:23.146Z,20.00
2022-09-13T04:27:55.289Z,20.00
2022-09-13T04:30:23.745Z,20.10
2022-09-13T04:32:50.686Z,20.20
2022-09-13T04:35:19.612Z,20.30
2022-09-13T04:37:48.426Z,20.20
2022-09-13T04:40:15.472Z,20.10
2022-09-13T04:42:46.293Z,20.10
2022-09-13T04:45:13.530Z,20.20
2022-09-13T04:47:40.645Z,20.10
2022-09-13T04:50:08.114Z,20.10
2022-09-13T04:52:34.901Z,20.00
2022-09-13T04:55:02.081Z,20.00
2022-09-13T04:57:29.549Z,20.00
2022-09-13T04:59:56.453Z,20.00
2022-09-13T05:02:23.351Z,20.10
2022-09-13T05:04:50.184Z,20.10
2022-09-13T05:07:18.228Z,20.00
2022-09-13T05:09:45.123Z,20.10
2022-09-13T05:12:13.243Z,20.00
2022-09-13T05:14:40.139Z,20.00
2022-09-13T05:17:07.117Z,20.00
2022-09-13T05:19:34.962Z,20.00
2022-09-13T05:22:02.467Z,19.90
2022-09-13T05:24:29.243Z,20.00
2022-09-13T05:26:56.118Z,20.00
2022-09-13T05:29:22.866Z,20.00
2022-09-13T05:31:49.748Z,20.10
2022-09-13T05:34:17.979Z,19.90
2022-09-13T05:36:48.443Z,19.80
2022-09-13T05:40:00.384Z,19.90
2022-09-13T05:42:08.045Z,19.80
2022-09-13T05:44:35.919Z,19.70
2022-09-13T05:47:05.795Z,19.70
2022-09-13T05:49:33.813Z,19.80
2022-09-13T05:52:00.677Z,19.90
2022-09-13T05:54:27.502Z,20.00
2022-09-13T05:56:57.452Z,20.20
2022-09-13T05:59:24.469Z,20.20
2022-09-13T06:01:54.705Z,20.10
2022-09-13T06:04:24.750Z,20.10
2022-09-13T06:06:52.638Z,20.20
2022-09-13T06:09:21.025Z,20.20
2022-09-13T06:11:47.910Z,20.20
2022-09-13T06:14:14.821Z,20.30
2022-09-13T06:16:42.540Z,20.40
2022-09-13T06:19:09.350Z,20.50
2022-09-13T06:21:36.456Z,20.40
2022-09-13T06:24:03.948Z,20.50
2022-09-13T06:26:31.979Z,20.60
2022-09-13T06:28:58.853Z,20.60
2022-09-13T06:31:28.165Z,20.70
2022-09-13T06:34:00.322Z,20.80
2022-09-13T06:36:27.447Z,20.70
2022-09-13T06:38:54.492Z,20.70
2022-09-13T06:41:24.722Z,20.60
2022-09-13T06:43:57.689Z,20.70
2022-09-13T06:46:26.527Z,20.70
2022-09-13T06:48:53.986Z,20.60
2022-09-13T06:51:23.474Z,20.70
2022-09-13T06:53:52.178Z,20.80
2022-09-13T06:56:33.812Z,20.80
2022-09-13T06:59:05.526Z,20.70
2022-09-13T07:01:43.649Z,20.70
2022-09-13T07:04:17.338Z,20.70
2022-09-13T07:06:49.102Z,20.70
2022-09-13T07:09:19.112Z,20.70
2022-09-13T07:11:49.051Z,20.80
2022-09-13T07:14:22.785Z,20.90
2022-09-13T07:16:51.871Z,20.90
2022-09-13T07:19:26.513Z,21.10
2022-09-13T07:21:54.182Z,21.10
2022-09-13T07:24:23.133Z,21.10
2022-09-13T07:26:50.741Z,21.20
2022-09-13T07:29:22.564Z,21.30
2022-09-13T07:31:52.444Z,21.30
2022-09-13T07:34:21.765Z,21.30
2022-09-13T07:36:50.127Z,21.30
2022-09-13T07:39:22.423Z,21.40
2022-09-13T07:41:54.190Z,21.40
2022-09-13T07:44:23.053Z,21.30
2022-09-13T07:46:51.041Z,21.30
2022-09-13T07:49:19.246Z,21.10
2022-09-13T07:51:46.329Z,21.00
2022-09-13T07:54:16.417Z,21.00
2022-09-13T07:56:44.726Z,21.10
2022-09-13T07:59:15.200Z,21.20
2022-09-13T08:01:44.613Z,21.10
2022-09-13T08:04:15.041Z,21.10
2022-09-13T08:06:43.709Z,21.10
2022-09-13T08:09:12.222Z,21.10
2022-09-13T08:11:42.450Z,21.20
2022-09-13T08:14:11.738Z,21.50
2022-09-13T08:16:39.472Z,21.80
2022-09-13T08:19:07.490Z,22.20
2022-09-13T08:21:36.741Z,22.40
2022-09-13T08:24:05.584Z,22.70
2022-09-13T08:26:34.556Z,22.80
2022-09-13T08:29:03.902Z,22.70
2022-09-13T08:31:31.969Z,22.80
2022-09-13T08:33:59.426Z,22.90
2022-09-13T08:36:27.708Z,22.90
2022-09-13T08:39:01.228Z,23.00
2022-09-13T08:41:40.421Z,23.20
2022-09-13T08:44:29.497Z,23.20
2022-09-13T08:47:11.870Z,23.30
2022-09-13T08:49:45.757Z,23.30
2022-09-13T08:52:32.526Z,23.10
2022-09-13T08:55:07.004Z,23.30
2022-09-13T08:57:53.216Z,23.20
2022-09-13T09:00:32.319Z,23.00
2022-09-13T09:03:17.089Z,23.20
2022-09-13T09:05:49.662Z,23.60
2022-09-13T09:08:40.236Z,23.90
2022-09-13T09:11:37.796Z,24.10
2022-09-13T09:14:22.768Z,24.40
2022-09-13T09:16:55.218Z,24.50
2022-09-13T09:19:22.032Z,24.50
2022-09-13T09:21:51.222Z,24.60
2022-09-13T09:24:24.024Z,24.80
2022-09-13T09:26:55.921Z,24.90
2022-09-13T09:29:44.171Z,25.00
2022-09-13T09:32:47.393Z,25.10
2022-09-13T09:35:28.614Z,25.10
2022-09-13T09:38:27.856Z,25.10
2022-09-13T09:40:54.678Z,25.10
2022-09-13T09:43:33.464Z,25.10
2022-09-13T09:46:02.978Z,25.00
2022-09-13T09:48:40.132Z,25.10
2022-09-13T09:51:10.551Z,25.00
2022-09-13T09:53:43.452Z,25.00
2022-09-13T09:56:24.353Z,24.90
2022-09-13T09:58:54.416Z,24.80
2022-09-13T10:01:37.733Z,24.80
2022-09-13T10:04:10.775Z,25.00
2022-09-13T10:06:40.433Z,25.20
2022-09-13T10:09:22.036Z,25.30
2022-09-13T10:11:56.619Z,25.50
2022-09-13T10:14:38.114Z,25.60
2022-09-13T10:17:16.555Z,25.80
2022-09-13T10:20:03.958Z,25.70
2022-09-13T10:22:32.600Z,25.70
2022-09-13T10:25:23.260Z,25.70
2022-09-13T10:28:00.958Z,25.50
2022-09-13T10:30:38.831Z,25.10
2022-09-13T10:33:08.222Z,24.90
2022-09-13T10:35:36.024Z,24.90
2022-09-13T10:38:02.871Z,25.00
2022-09-13T10:40:38.559Z,25.10
2022-09-13T10:43:15.241Z,24.90
2022-09-13T10:45:42.782Z,24.90
2022-09-13T10:48:16.349Z,25.10
2022-09-13T10:51:14.849Z,25.30
2022-09-13T10:53:42.956Z,25.40
2022-09-13T10:56:26.398Z,25.40
2022-09-13T10:59:19.655Z,25.50
2022-09-13T11:02:24.937Z,25.80
2022-09-13T11:05:14.577Z,25.30
2022-09-13T11:08:04.467Z,25.10
2022-09-13T11:10:51.241Z,25.40
2022-09-13T11:13:40.825Z,25.40
2022-09-13T11:16:15.622Z,25.60
2022-09-13T11:18:58.034Z,25.60
2022-09-13T11:21:35.669Z,25.60
2022-09-13T11:24:17.819Z,25.30
2022-09-13T11:27:21.549Z,25.10
2022-09-13T11:30:33.366Z,25.00
2022-09-13T11:33:19.382Z,24.90
2022-09-13T11:36:11.827Z,24.80
2022-09-13T11:39:13.916Z,25.10
2022-09-13T11:41:51.262Z,25.40
2022-09-13T11:44:50.930Z,25.50
2022-09-13T11:47:33.482Z,25.60
2022-09-13T11:50:23.236Z,25.50
2022-09-13T11:53:06.934Z,25.20
2022-09-13T11:55:40.738Z,25.10
2022-09-13T11:58:35.385Z,25.00
2022-09-13T12:01:08.387Z,25.10
2022-09-13T12:03:48.862Z,25.30
2022-09-13T12:06:28.885Z,25.60
2022-09-13T12:09:08.211Z,25.70
2022-09-13T12:12:05.026Z,25.80
2022-09-13T12:14:59.917Z,25.90
2022-09-13T12:17:34.999Z,25.70
2022-09-13T12:20:05.261Z,25.50
2022-09-13T12:22:35.639Z,25.50
2022-09-13T12:25:33.302Z,25.60
2022-09-13T12:28:08.805Z,25.50
2022-09-13T12:31:04.750Z,25.60
2022-09-13T12:33:31.772Z,25.60
2022-09-13T12:36:25.777Z,25.70
2022-09-13T12:39:08.555Z,25.70
2022-09-13T12:42:35.050Z,25.70
2022-09-13T12:45:17.679Z,25.70
2022-09-13T12:47:52.698Z,25.30
2022-09-13T12:50:58.992Z,25.30
2022-09-13T12:54:21.071Z,25.30
2022-09-13T12:57:10.297Z,25.40
2022-09-13T12:59:55.540Z,25.50
2022-09-13T13:02:36.276Z,25.30
2022-09-13T13:05:15.561Z,25.40
2022-09-13T13:07:46.409Z,25.30
2022-09-13T13:10:35.193Z,25.30
2022-09-13T13:13:22.701Z,25.50
2022-09-13T13:15:50.584Z,25.60
2022-09-13T13:18:30.914Z,25.70
2022-09-13T13:20:58.721Z,25.60
2022-09-13T13:23:36.521Z,25.70
2022-09-13T13:26:09.245Z,25.70
2022-09-13T13:28:45.271Z,25.40
2022-09-13T13:31:27.831Z,25.20
2022-09-13T13:34:02.127Z,25.00
2022-09-13T13:36:42.893Z,25.00
2022-09-13T13:39:23.202Z,25.20
2022-09-13T13:42:23.511Z,25.20
2022-09-13T13:44:53.461Z,25.10
2022-09-13T13:47:20.345Z,25.10
2022-09-13T13:50:03.719Z,25.00
2022-09-13T13:52:52.354Z,24.80
2022-09-13T13:55:31.406Z,24.50
2022-09-13T13:58:05.752Z,24.10
2022-09-13T14:00:36.521Z,23.80
2022-09-13T14:03:03.337Z,23.60
2022-09-13T14:06:08.114Z,23.40
2022-09-13T14:11:50.549Z,23.30
2022-09-13T14:14:38.658Z,23.20
2022-09-13T14:17:33.361Z,23.20
2022-09-13T14:20:05.617Z,23.10
2022-09-13T14:22:32.380Z,23.10
2022-09-13T14:25:23.173Z,23.10
2022-09-13T14:27:52.823Z,23.10
2022-09-13T14:30:24.082Z,23.10
2022-09-13T14:32:56.478Z,23.30
2022-09-13T14:35:36.876Z,23.50
2022-09-13T14:38:13.196Z,23.70
2022-09-13T14:40:40.555Z,23.80
2022-09-13T14:43:21.289Z,23.90
2022-09-13T14:45:53.942Z,24.00
2022-09-13T14:48:24.877Z,24.10
2022-09-13T14:50:57.713Z,24.00
2022-09-13T14:53:27.129Z,24.00
2022-09-13T14:56:01.849Z,23.90
2022-09-13T14:58:46.590Z,24.00
2022-09-13T15:01:17.934Z,24.10
2022-09-13T15:03:46.455Z,24.20
2022-09-13T15:06:27.222Z,24.20
2022-09-13T15:08:58.912Z,24.30
2022-09-13T15:11:32.509Z,24.30
2022-09-13T15:14:23.782Z,24.30
2022-09-13T15:16:53.455Z,24.10
2022-09-13T15:19:31.918Z,24.10
2022-09-13T15:22:14.306Z,24.20
2022-09-13T15:24:47.677Z,24.20
2022-09-13T15:27:42.459Z,24.20
2022-09-13T15:30:30.292Z,24.10
2022-09-13T15:33:15.926Z,24.00
2022-09-13T15:35:45.435Z,23.90
2022-09-13T15:38:30.924Z,23.80
2022-09-13T15:41:13.161Z,23.70
2022-09-13T15:43:41.036Z,23.80
2022-09-13T15:46:16.679Z,23.80
2022-09-13T15:48:59.031Z,23.80
2022-09-13T15:51:26.705Z,23.80
2022-09-13T15:53:55.018Z,23.50
2022-09-13T15:56:28.197Z,23.50
2022-09-13T15:58:55.105Z,23.70
2022-09-13T16:01:22.073Z,23.80
2022-09-13T16:03:50.741Z,23.50
2022-09-13T16:06:24.480Z,23.40
2022-09-13T16:08:51.726Z,23.20
2022-09-13T16:11:18.578Z,23.30
2022-09-13T16:13:45.414Z,23.50
2022-09-13T16:16:14.703Z,23.60
2022-09-13T16:18:41.642Z,23.40
2022-09-13T16:21:08.734Z,23.20
2022-09-13T16:23:35.667Z,23.10
2022-09-13T16:26:04.883Z,23.00
2022-09-13T16:28:31.741Z,22.90
2022-09-13T16:30:58.644Z,22.70
2022-09-13T16:33:25.717Z,22.60
2022-09-13T16:35:52.571Z,22.50
2022-09-13T16:38:20.352Z,22.40
2022-09-13T16:40:47.697Z,22.30
2022-09-13T16:43:15.630Z,22.30
2022-09-13T16:45:42.902Z,22.20
2022-09-13T16:48:11.018Z,22.10
2022-09-13T16:50:42.190Z,22.10
2022-09-13T16:53:10.101Z,22.10
2022-09-13T16:55:37.051Z,22.20
2022-09-13T16:58:04.025Z,22.00
2022-09-13T17:00:31.003Z,21.90
2022-09-13T17:02:57.844Z,21.70
2022-09-13T17:05:25.097Z,21.70
2022-09-13T17:07:53.158Z,21.60
2022-09-13T17:10:21.458Z,21.50
2022-09-13T17:12:48.811Z,21.40
2022-09-13T17:15:17.102Z,21.50
2022-09-13T17:17:44.981Z,21.60
2022-09-13T17:20:13.371Z,21.60
2022-09-13T17:22:40.839Z,21.40
2022-09-13T17:25:08.545Z,21.30
2022-09-13T17:27:36.661Z,21.40
2022-09-13T17:30:05.192Z,21.40
2022-09-13T17:32:32.246Z,21.40
2022-09-13T17:34:59.242Z,21.30
2022-09-13T17:37:27.073Z,21.10
2022-09-13T17:39:54.046Z,20.90
2022-09-13T17:42:23.305Z,20.80
2022-09-13T17:44:51.012Z,20.80
2022-09-13T17:47:17.897Z,20.80
2022-09-13T17:49:46.780Z,20.70
2022-09-13T17:52:13.835Z,20.60
2022-09-13T17:54:40.754Z,20.60
2022-09-13T17:57:07.694Z,20.80
2022-09-13T17:59:35.715Z,20.80
2022-09-13T18:02:02.720Z,21.00
2022-09-13T18:04:29.561Z,21.00
2022-09-13T18:06:56.444Z,21.10
2022-09-13T18:09:24.483Z,21.10
2022-09-13T18:11:51.270Z,21.00
2022-09-13T18:14:19.351Z,20.90
2022-09-13T18:16:47.061Z,20.90
2022-09-13T18:19:14.058Z,20.80
2022-09-13T18:21:41.216Z,20.70
2022-09-13T18:24:08.208Z,20.60
2022-09-13T18:26:35.841Z,20.50
2022-09-13T18:29:09.378Z,20.50
2022-09-13T18:31:38.541Z,20.60
2022-09-13T18:34:09.703Z,20.70
2022-09-13T18:36:37.329Z,20.80
2022-09-13T18:39:06.281Z,20.90
2022-09-13T18:41:35.822Z,20.80
2022-09-13T18:44:05.050Z,20.70
2022-09-13T18:46:34.765Z,20.50
2022-09-13T18:49:05.075Z,20.40
2022-09-13T18:51:35.332Z,20.40
2022-09-13T18:54:03.450Z,20.40
2022-09-13T18:56:33.072Z,20.40
2022-09-13T18:59:02.439Z,20.30
2022-09-13T19:01:33.980Z,20.30
2022-09-13T19:04:10.379Z,20.40
2022-09-13T19:06:39.816Z,20.30
2022-09-13T19:09:08.697Z,20.30
2022-09-13T19:11:46.840Z,20.50
2022-09-13T19:14:27.243Z,20.50
2022-09-13T19:17:01.289Z,20.60
2022-09-13T19:19:30.293Z,20.60
2022-09-13T19:21:57.376Z,20.70
2022-09-13T19:24:28.473Z,20.60
2022-09-13T19:26:55.460Z,20.60
2022-09-13T19:29:23.393Z,20.60
2022-09-13T19:31:52.481Z,20.60
2022-09-13T19:34:22.057Z,20.50
2022-09-13T19:36:52.475Z,20.40
2022-09-13T19:39:20.373Z,20.20
2022-09-13T19:41:47.399Z,20.30
2022-09-13T19:44:14.685Z,20.40
2022-09-13T19:46:43.574Z,20.50
2022-09-13T19:49:16.442Z,20.50
2022-09-13T19:51:50.176Z,20.40
2022-09-13T19:54:19.390Z,20.40
2022-09-13T19:56:46.901Z,20.50
2022-09-13T19:59:19.797Z,20.50
2022-09-13T20:01:47.806Z,20.70
2022-09-13T20:04:20.782Z,20.70
2022-09-13T20:06:50.040Z,20.70
2022-09-13T20:09:18.822Z,20.70
2022-09-13T20:11:48.719Z,20.50
2022-09-13T20:14:19.369Z,20.50
2022-09-13T20:16:47.801Z,20.60
2022-09-13T20:19:39.852Z,20.70
2022-09-13T20:22:09.847Z,20.60
2022-09-13T20:24:37.072Z,20.70
2022-09-13T20:27:04.257Z,20.60
2022-09-13T20:29:32.242Z,20.60
2022-09-13T20:31:59.978Z,20.60
2022-09-13T20:34:28.257Z,20.60
2022-09-13T20:36:55.108Z,20.60
2022-09-13T20:39:22.964Z,20.60
2022-09-13T20:41:50.876Z,20.60
2022-09-13T20:44:20.775Z,20.70
2022-09-13T20:46:47.570Z,20.70
2022-09-13T20:49:15.587Z,20.70
2022-09-13T20:51:43.529Z,20.70
2022-09-13T20:54:13.257Z,20.70
2022-09-13T20:56:40.833Z,20.60
2022-09-13T20:59:07.776Z,20.50
2022-09-13T21:01:36.561Z,20.60
2022-09-13T21:04:03.742Z,20.60
2022-09-13T21:06:36.728Z,20.60
2022-09-13T21:09:03.769Z,20.60
2022-09-13T21:11:35.845Z,20.60
2022-09-13T21:14:06.076Z,20.70
2022-09-13T21:16:45.160Z,20.60
2022-09-13T21:19:12.257Z,20.50
2022-09-13T21:21:41.673Z,20.50
2022-09-13T21:24:14.759Z,20.60
2022-09-13T21:26:42.774Z,20.60
2022-09-13T21:29:10.716Z,20.60
2022-09-13T21:31:38.118Z,20.60
2022-09-13T21:34:15.082Z,20.60
2022-09-13T21:36:42.955Z,20.60
2022-09-13T21:39:10.204Z,20.60
2022-09-13T21:41:37.299Z,20.60
2022-09-13T21:44:04.556Z,20.60
2022-09-13T21:46:34.080Z,20.60
2022-09-13T21:49:06.477Z,20.60
2022-09-13T21:51:34.993Z,20.50
2022-09-13T21:54:06.719Z,20.40
2022-09-13T21:56:38.403Z,20.50
2022-09-13T21:59:08.922Z,20.50
2022-09-13T22:01:39.131Z,20.30
2022-09-13T22:04:07.504Z,20.20
2022-09-13T22:06:35.173Z,20.20
2022-09-13T22:09:07.745Z,20.30
2022-09-13T22:11:44.466Z,20.40
2022-09-13T22:14:13.928Z,20.40
2022-09-13T22:16:42.586Z,20.40
2022-09-13T22:19:11.916Z,20.40
2022-09-13T22:21:41.670Z,20.40
2022-09-13T22:24:12.756Z,20.30
2022-09-13T22:26:40.660Z,20.40
2022-09-13T22:29:08.704Z,20.30
2022-09-13T22:31:38.693Z,20.40
2022-09-13T22:34:06.904Z,20.30
2022-09-13T22:36:34.045Z,20.30
2022-09-13T22:39:00.902Z,20.20
2022-09-13T22:41:31.222Z,20.10
2022-09-13T22:43:59.701Z,20.10
2022-09-13T22:46:34.984Z,20.20
2022-09-13T22:49:02.633Z,20.00
2022-09-13T22:51:29.757Z,20.00
2022-09-13T22:53:56.888Z,20.00
2022-09-13T22:56:32.137Z,20.00
2022-09-13T22:59:08.489Z,20.00
2022-09-13T23:01:36.179Z,19.90
2022-09-13T23:04:04.007Z,19.90
2022-09-13T23:06:32.032Z,19.80
2022-09-13T23:09:01.223Z,19.70
2022-09-13T23:11:31.722Z,19.90
2022-09-13T23:14:01.772Z,19.90
2022-09-13T23:16:32.061Z,19.80
2022-09-13T23:19:00.233Z,19.70
2022-09-13T23:21:31.015Z,19.70
2022-09-13T23:23:59.809Z,19.70
2022-09-13T23:26:29.317Z,19.60
2022-09-13T23:28:58.459Z,19.60
2022-09-13T23:31:28.821Z,19.50
2022-09-13T23:34:02.054Z,19.50
2022-09-13T23:36:31.757Z,19.50
2022-09-13T23:38:59.325Z,19.40
2022-09-13T23:41:27.171Z,19.40
2022-09-13T23:43:54.353Z,19.60
2022-09-13T23:46:24.189Z,19.50
2022-09-13T23:48:52.045Z,19.40
2022-09-13T23:51:25.723Z,19.40
2022-09-13T23:53:57.184Z,19.40
2022-09-13T23:56:26.715Z,19.40
2022-09-13T23:58:56.334Z,19.40
